sensor_id;sensor_type;location;lat;lon;timestamp;P1;durP1;ratioP1;P2;durP2;ratioP2
31061;SDS011;17724;53.546;9.974;2023-03-19T00:02:22;11.53;;;6.87;;
31061;SDS011;17724;53.546;9.974;2023-03-19T00:06:22;9.50;;;5.07;;
31061;SDS011;17724;53.546;9.974;2023-03-19T00:10:24;10.23;;;5.17;;
31061;SDS011;17724;53.546;9.974;2023-03-19T00:14:25;8.40;;;4.97;;
31061;SDS011;17724;53.546;9.974;2023-03-19T00:18:25;8.97;;;4.30;;
31061;SDS011;17724;53.546;9.974;2023-03-19T00:22:25;8.00;;;4.17;;
31061;SDS011;17724;53.546;9.974;2023-03-19T00:26:29;8.07;;;3.73;;
31061;SDS011;17724;53.546;9.974;2023-03-19T00:30:32;9.27;;;4.20;;
31061;SDS011;17724;53.546;9.974;2023-03-19T00:34:33;8.60;;;4.00;;
31061;SDS011;17724;53.546;9.974;2023-03-19T00:38:33;8.70;;;4.17;;
31061;SDS011;17724;53.546;9.974;2023-03-19T00:42:39;8.80;;;4.80;;
31061;SDS011;17724;53.546;9.974;2023-03-19T00:46:41;8.30;;;4.27;;
31061;SDS011;17724;53.546;9.974;2023-03-19T00:50:41;8.17;;;3.90;;
31061;SDS011;17724;53.546;9.974;2023-03-19T00:54:42;9.40;;;4.57;;
31061;SDS011;17724;53.546;9.974;2023-03-19T00:58:43;10.33;;;4.53;;
31061;SDS011;17724;53.546;9.974;2023-03-19T01:02:44;8.27;;;4.07;;
31061;SDS011;17724;53.546;9.974;2023-03-19T01:06:45;8.23;;;4.03;;
31061;SDS011;17724;53.546;9.974;2023-03-19T01:10:45;7.50;;;4.33;;
31061;SDS011;17724;53.546;9.974;2023-03-19T01:14:46;7.83;;;3.17;;
31061;SDS011;17724;53.546;9.974;2023-03-19T01:18:46;8.17;;;3.57;;
31061;SDS011;17724;53.546;9.974;2023-03-19T01:22:47;7.20;;;2.97;;
31061;SDS011;17724;53.546;9.974;2023-03-19T01:26:48;8.00;;;3.37;;
31061;SDS011;17724;53.546;9.974;2023-03-19T01:31:04;8.10;;;3.87;;
31061;SDS011;17724;53.546;9.974;2023-03-19T01:35:25;7.37;;;3.27;;
31061;SDS011;17724;53.546;9.974;2023-03-19T01:39:25;8.70;;;3.30;;
31061;SDS011;17724;53.546;9.974;2023-03-19T01:43:29;6.77;;;2.77;;
31061;SDS011;17724;53.546;9.974;2023-03-19T01:47:59;8.20;;;3.07;;
31061;SDS011;17724;53.546;9.974;2023-03-19T01:52:17;8.30;;;2.70;;
31061;SDS011;17724;53.546;9.974;2023-03-19T01:56:35;6.87;;;2.73;;
31061;SDS011;17724;53.546;9.974;2023-03-19T02:00:50;6.50;;;2.87;;
31061;SDS011;17724;53.546;9.974;2023-03-19T02:05:10;7.00;;;2.70;;
31061;SDS011;17724;53.546;9.974;2023-03-19T02:09:14;9.20;;;3.10;;
31061;SDS011;17724;53.546;9.974;2023-03-19T02:13:17;8.93;;;3.30;;
31061;SDS011;17724;53.546;9.974;2023-03-19T02:17:19;7.50;;;3.10;;
31061;SDS011;17724;53.546;9.974;2023-03-19T02:21:21;9.23;;;3.73;;
31061;SDS011;17724;53.546;9.974;2023-03-19T02:25:31;7.03;;;3.37;;
31061;SDS011;17724;53.546;9.974;2023-03-19T02:29:37;7.27;;;2.83;;
31061;SDS011;17724;53.546;9.974;2023-03-19T02:33:38;9.80;;;3.50;;
31061;SDS011;17724;53.546;9.974;2023-03-19T02:37:38;7.00;;;2.80;;
31061;SDS011;17724;53.546;9.974;2023-03-19T02:41:39;6.77;;;2.70;;
31061;SDS011;17724;53.546;9.974;2023-03-19T02:45:41;6.93;;;2.50;;
31061;SDS011;17724;53.546;9.974;2023-03-19T02:49:42;7.90;;;2.90;;
31061;SDS011;17724;53.546;9.974;2023-03-19T02:53:42;6.47;;;2.37;;
31061;SDS011;17724;53.546;9.974;2023-03-19T02:57:45;8.00;;;2.57;;
31061;SDS011;17724;53.546;9.974;2023-03-19T03:01:46;7.00;;;2.43;;
31061;SDS011;17724;53.546;9.974;2023-03-19T03:05:46;6.43;;;2.33;;
31061;SDS011;17724;53.546;9.974;2023-03-19T03:09:47;7.63;;;2.57;;
31061;SDS011;17724;53.546;9.974;2023-03-19T03:13:47;8.40;;;2.43;;
31061;SDS011;17724;53.546;9.974;2023-03-19T03:17:48;8.00;;;2.60;;
31061;SDS011;17724;53.546;9.974;2023-03-19T03:21:48;7.43;;;2.63;;
31061;SDS011;17724;53.546;9.974;2023-03-19T03:25:49;7.47;;;2.60;;
31061;SDS011;17724;53.546;9.974;2023-03-19T03:29:51;7.00;;;3.20;;
31061;SDS011;17724;53.546;9.974;2023-03-19T03:33:51;8.20;;;2.80;;
31061;SDS011;17724;53.546;9.974;2023-03-19T03:37:52;7.30;;;2.87;;
31061;SDS011;17724;53.546;9.974;2023-03-19T03:41:52;10.10;;;3.60;;
31061;SDS011;17724;53.546;9.974;2023-03-19T03:45:53;7.17;;;3.03;;
31061;SDS011;17724;53.546;9.974;2023-03-19T03:49:54;8.17;;;2.90;;
31061;SDS011;17724;53.546;9.974;2023-03-19T03:53:55;7.70;;;3.50;;
31061;SDS011;17724;53.546;9.974;2023-03-19T03:57:56;7.13;;;3.13;;
31061;SDS011;17724;53.546;9.974;2023-03-19T04:01:57;7.80;;;3.37;;
31061;SDS011;17724;53.546;9.974;2023-03-19T04:05:57;9.13;;;4.30;;
31061;SDS011;17724;53.546;9.974;2023-03-19T04:09:58;7.63;;;3.37;;
31061;SDS011;17724;53.546;9.974;2023-03-19T04:13:59;8.47;;;3.80;;
31061;SDS011;17724;53.546;9.974;2023-03-19T04:18:01;7.97;;;3.77;;
31061;SDS011;17724;53.546;9.974;2023-03-19T04:22:02;9.23;;;4.20;;
31061;SDS011;17724;53.546;9.974;2023-03-19T04:26:05;7.40;;;3.27;;
31061;SDS011;17724;53.546;9.974;2023-03-19T04:30:08;7.80;;;4.00;;
31061;SDS011;17724;53.546;9.974;2023-03-19T04:34:10;7.97;;;4.00;;
31061;SDS011;17724;53.546;9.974;2023-03-19T04:38:11;8.30;;;4.10;;
31061;SDS011;17724;53.546;9.974;2023-03-19T04:42:12;7.57;;;4.13;;
31061;SDS011;17724;53.546;9.974;2023-03-19T04:46:22;8.40;;;4.27;;
31061;SDS011;17724;53.546;9.974;2023-03-19T04:50:23;8.77;;;4.77;;
31061;SDS011;17724;53.546;9.974;2023-03-19T04:54:24;8.20;;;4.20;;
31061;SDS011;17724;53.546;9.974;2023-03-19T04:58:25;8.53;;;4.60;;
31061;SDS011;17724;53.546;9.974;2023-03-19T05:02:31;8.20;;;3.90;;
31061;SDS011;17724;53.546;9.974;2023-03-19T05:06:33;9.70;;;4.23;;
31061;SDS011;17724;53.546;9.974;2023-03-19T05:10:34;8.97;;;4.57;;
31061;SDS011;17724;53.546;9.974;2023-03-19T05:14:36;8.73;;;4.53;;
31061;SDS011;17724;53.546;9.974;2023-03-19T05:18:45;12.37;;;4.80;;
31061;SDS011;17724;53.546;9.974;2023-03-19T05:22:46;10.67;;;4.77;;
31061;SDS011;17724;53.546;9.974;2023-03-19T05:26:49;9.83;;;4.87;;
31061;SDS011;17724;53.546;9.974;2023-03-19T05:30:58;9.00;;;4.40;;
31061;SDS011;17724;53.546;9.974;2023-03-19T05:35:07;9.50;;;4.90;;
31061;SDS011;17724;53.546;9.974;2023-03-19T05:39:10;9.47;;;4.77;;
31061;SDS011;17724;53.546;9.974;2023-03-19T05:43:13;8.63;;;4.60;;
31061;SDS011;17724;53.546;9.974;2023-03-19T05:47:14;9.47;;;4.40;;
31061;SDS011;17724;53.546;9.974;2023-03-19T05:51:20;14.13;;;8.03;;
31061;SDS011;17724;53.546;9.974;2023-03-19T05:55:21;9.10;;;4.20;;
31061;SDS011;17724;53.546;9.974;2023-03-19T05:59:28;10.10;;;5.33;;
31061;SDS011;17724;53.546;9.974;2023-03-19T06:03:46;9.17;;;5.10;;
31061;SDS011;17724;53.546;9.974;2023-03-19T06:07:47;9.93;;;5.43;;
31061;SDS011;17724;53.546;9.974;2023-03-19T06:11:57;10.50;;;6.10;;
31061;SDS011;17724;53.546;9.974;2023-03-19T06:16:16;9.50;;;5.60;;
31061;SDS011;17724;53.546;9.974;2023-03-19T06:20:27;9.80;;;5.27;;
31061;SDS011;17724;53.546;9.974;2023-03-19T06:24:28;13.63;;;6.10;;
31061;SDS011;17724;53.546;9.974;2023-03-19T06:28:30;10.37;;;6.00;;
31061;SDS011;17724;53.546;9.974;2023-03-19T06:32:31;9.20;;;5.57;;
31061;SDS011;17724;53.546;9.974;2023-03-19T06:36:36;10.60;;;6.53;;
31061;SDS011;17724;53.546;9.974;2023-03-19T06:40:37;10.07;;;6.50;;
31061;SDS011;17724;53.546;9.974;2023-03-19T06:44:38;10.60;;;5.47;;
31061;SDS011;17724;53.546;9.974;2023-03-19T06:48:39;9.67;;;5.90;;
31061;SDS011;17724;53.546;9.974;2023-03-19T06:52:40;10.03;;;5.83;;
31061;SDS011;17724;53.546;9.974;2023-03-19T06:56:40;9.67;;;5.27;;
31061;SDS011;17724;53.546;9.974;2023-03-19T07:00:41;10.70;;;6.07;;
31061;SDS011;17724;53.546;9.974;2023-03-19T07:04:41;13.40;;;9.07;;
31061;SDS011;17724;53.546;9.974;2023-03-19T07:08:42;8.93;;;5.20;;
31061;SDS011;17724;53.546;9.974;2023-03-19T07:12:45;10.00;;;5.97;;
31061;SDS011;17724;53.546;9.974;2023-03-19T07:16:46;10.53;;;5.90;;
31061;SDS011;17724;53.546;9.974;2023-03-19T07:20:46;9.90;;;5.30;;
31061;SDS011;17724;53.546;9.974;2023-03-19T07:24:47;9.90;;;6.23;;
31061;SDS011;17724;53.546;9.974;2023-03-19T07:28:47;10.40;;;5.80;;
31061;SDS011;17724;53.546;9.974;2023-03-19T07:32:47;9.67;;;5.67;;
31061;SDS011;17724;53.546;9.974;2023-03-19T07:36:48;11.27;;;5.83;;
31061;SDS011;17724;53.546;9.974;2023-03-19T07:40:49;10.20;;;5.93;;
31061;SDS011;17724;53.546;9.974;2023-03-19T07:44:50;9.80;;;5.70;;
31061;SDS011;17724;53.546;9.974;2023-03-19T07:48:50;10.00;;;5.90;;
31061;SDS011;17724;53.546;9.974;2023-03-19T07:52:51;10.70;;;5.93;;
31061;SDS011;17724;53.546;9.974;2023-03-19T07:56:52;11.57;;;7.03;;
31061;SDS011;17724;53.546;9.974;2023-03-19T08:00:52;10.03;;;6.03;;
31061;SDS011;17724;53.546;9.974;2023-03-19T08:04:53;9.93;;;6.20;;
31061;SDS011;17724;53.546;9.974;2023-03-19T08:08:54;13.03;;;7.57;;
31061;SDS011;17724;53.546;9.974;2023-03-19T08:12:55;11.07;;;7.00;;
31061;SDS011;17724;53.546;9.974;2023-03-19T08:16:56;10.40;;;6.50;;
31061;SDS011;17724;53.546;9.974;2023-03-19T08:20:56;11.30;;;6.23;;
31061;SDS011;17724;53.546;9.974;2023-03-19T08:24:56;12.50;;;6.70;;
31061;SDS011;17724;53.546;9.974;2023-03-19T08:28:57;9.80;;;6.47;;
31061;SDS011;17724;53.546;9.974;2023-03-19T08:32:58;13.77;;;6.60;;
31061;SDS011;17724;53.546;9.974;2023-03-19T08:36:58;10.07;;;6.87;;
31061;SDS011;17724;53.546;9.974;2023-03-19T08:40:59;10.30;;;6.67;;
31061;SDS011;17724;53.546;9.974;2023-03-19T08:45:01;11.50;;;6.73;;
31061;SDS011;17724;53.546;9.974;2023-03-19T08:49:01;10.90;;;5.43;;
31061;SDS011;17724;53.546;9.974;2023-03-19T08:53:02;10.47;;;5.20;;
31061;SDS011;17724;53.546;9.974;2023-03-19T08:57:02;13.20;;;5.60;;
31061;SDS011;17724;53.546;9.974;2023-03-19T09:01:07;9.47;;;5.83;;
31061;SDS011;17724;53.546;9.974;2023-03-19T09:05:09;10.03;;;6.23;;
31061;SDS011;17724;53.546;9.974;2023-03-19T09:09:10;9.40;;;5.90;;
31061;SDS011;17724;53.546;9.974;2023-03-19T09:13:10;10.23;;;6.23;;
31061;SDS011;17724;53.546;9.974;2023-03-19T09:17:11;11.93;;;6.17;;
31061;SDS011;17724;53.546;9.974;2023-03-19T09:21:12;10.00;;;5.60;;
31061;SDS011;17724;53.546;9.974;2023-03-19T09:25:13;9.30;;;4.90;;
31061;SDS011;17724;53.546;9.974;2023-03-19T09:29:14;9.73;;;5.50;;
31061;SDS011;17724;53.546;9.974;2023-03-19T09:33:16;9.60;;;5.13;;
31061;SDS011;17724;53.546;9.974;2023-03-19T09:37:17;10.10;;;5.27;;
31061;SDS011;17724;53.546;9.974;2023-03-19T09:45:39;9.23;;;4.00;;
31061;SDS011;17724;53.546;9.974;2023-03-19T09:49:43;8.70;;;4.17;;
31061;SDS011;17724;53.546;9.974;2023-03-19T09:53:49;8.90;;;3.93;;
31061;SDS011;17724;53.546;9.974;2023-03-19T09:57:56;8.40;;;3.30;;
31061;SDS011;17724;53.546;9.974;2023-03-19T10:02:14;8.80;;;3.30;;
31061;SDS011;17724;53.546;9.974;2023-03-19T10:06:32;8.20;;;3.40;;
31061;SDS011;17724;53.546;9.974;2023-03-19T10:15:13;8.20;;;3.23;;
31061;SDS011;17724;53.546;9.974;2023-03-19T10:19:19;8.30;;;2.90;;
31061;SDS011;17724;53.546;9.974;2023-03-19T10:28:15;9.43;;;2.90;;
31061;SDS011;17724;53.546;9.974;2023-03-19T10:36:44;9.30;;;2.60;;
31061;SDS011;17724;53.546;9.974;2023-03-19T10:40:48;8.87;;;3.70;;
31061;SDS011;17724;53.546;9.974;2023-03-19T10:49:22;7.23;;;2.50;;
31061;SDS011;17724;53.546;9.974;2023-03-19T10:53:28;8.57;;;2.90;;
31061;SDS011;17724;53.546;9.974;2023-03-19T10:57:32;11.63;;;5.70;;
31061;SDS011;17724;53.546;9.974;2023-03-19T11:01:35;9.20;;;3.83;;
31061;SDS011;17724;53.546;9.974;2023-03-19T11:05:38;9.07;;;3.70;;
31061;SDS011;17724;53.546;9.974;2023-03-19T11:09:39;14.93;;;9.00;;
31061;SDS011;17724;53.546;9.974;2023-03-19T11:13:41;17.57;;;11.03;;
31061;SDS011;17724;53.546;9.974;2023-03-19T11:17:47;15.17;;;8.80;;
31061;SDS011;17724;53.546;9.974;2023-03-19T11:21:58;14.03;;;7.60;;
31061;SDS011;17724;53.546;9.974;2023-03-19T11:26:01;12.23;;;6.60;;
31061;SDS011;17724;53.546;9.974;2023-03-19T11:30:05;11.17;;;6.53;;
31061;SDS011;17724;53.546;9.974;2023-03-19T11:34:34;11.43;;;6.20;;
31061;SDS011;17724;53.546;9.974;2023-03-19T11:38:52;11.17;;;6.03;;
31061;SDS011;17724;53.546;9.974;2023-03-19T11:43:08;17.47;;;12.90;;
31061;SDS011;17724;53.546;9.974;2023-03-19T11:47:39;11.33;;;6.50;;
31061;SDS011;17724;53.546;9.974;2023-03-19T11:52:06;10.50;;;5.47;;
31061;SDS011;17724;53.546;9.974;2023-03-19T12:00:45;11.60;;;6.07;;
31061;SDS011;17724;53.546;9.974;2023-03-19T12:04:56;13.47;;;6.70;;
31061;SDS011;17724;53.546;9.974;2023-03-19T12:17:33;25.83;;;13.47;;
31061;SDS011;17724;53.546;9.974;2023-03-19T12:21:50;21.97;;;12.00;;
31061;SDS011;17724;53.546;9.974;2023-03-19T12:26:07;13.53;;;7.00;;
31061;SDS011;17724;53.546;9.974;2023-03-19T12:34:34;23.00;;;12.00;;
31061;SDS011;17724;53.546;9.974;2023-03-19T12:38:42;24.50;;;14.07;;
31061;SDS011;17724;53.546;9.974;2023-03-19T12:42:47;16.87;;;7.40;;
31061;SDS011;17724;53.546;9.974;2023-03-19T12:46:50;14.87;;;6.70;;
31061;SDS011;17724;53.546;9.974;2023-03-19T12:50:53;15.23;;;8.20;;
31061;SDS011;17724;53.546;9.974;2023-03-19T12:55:01;10.80;;;4.73;;
31061;SDS011;17724;53.546;9.974;2023-03-19T13:04:02;23.63;;;14.00;;
31061;SDS011;17724;53.546;9.974;2023-03-19T13:08:28;32.73;;;18.17;;
31061;SDS011;17724;53.546;9.974;2023-03-19T13:12:36;23.50;;;13.40;;
31061;SDS011;17724;53.546;9.974;2023-03-19T13:25:10;16.67;;;12.20;;
31061;SDS011;17724;53.546;9.974;2023-03-19T13:29:24;27.83;;;20.90;;
31061;SDS011;17724;53.546;9.974;2023-03-19T13:33:26;15.37;;;10.60;;
31061;SDS011;17724;53.546;9.974;2023-03-19T13:37:28;23.33;;;19.10;;
31061;SDS011;17724;53.546;9.974;2023-03-19T13:45:35;16.00;;;9.17;;
31061;SDS011;17724;53.546;9.974;2023-03-19T13:49:37;12.00;;;7.60;;
31061;SDS011;17724;53.546;9.974;2023-03-19T13:54:17;8.73;;;4.90;;
31061;SDS011;17724;53.546;9.974;2023-03-19T13:58:25;10.70;;;5.70;;
31061;SDS011;17724;53.546;9.974;2023-03-19T14:02:47;35.17;;;26.07;;
31061;SDS011;17724;53.546;9.974;2023-03-19T14:06:57;50.30;;;36.60;;
31061;SDS011;17724;53.546;9.974;2023-03-19T14:11:10;21.83;;;13.90;;
31061;SDS011;17724;53.546;9.974;2023-03-19T14:15:23;17.17;;;11.73;;
31061;SDS011;17724;53.546;9.974;2023-03-19T14:19:27;38.10;;;24.30;;
31061;SDS011;17724;53.546;9.974;2023-03-19T14:23:29;45.93;;;30.13;;
31061;SDS011;17724;53.546;9.974;2023-03-19T14:27:32;52.90;;;37.33;;
31061;SDS011;17724;53.546;9.974;2023-03-19T14:31:50;13.23;;;8.17;;
31061;SDS011;17724;53.546;9.974;2023-03-19T14:35:53;33.90;;;22.60;;
31061;SDS011;17724;53.546;9.974;2023-03-19T14:44:27;35.07;;;24.77;;
31061;SDS011;17724;53.546;9.974;2023-03-19T14:49:09;39.13;;;33.40;;
31061;SDS011;17724;53.546;9.974;2023-03-19T14:57:20;24.83;;;16.30;;
31061;SDS011;17724;53.546;9.974;2023-03-19T15:01:25;32.23;;;23.57;;
31061;SDS011;17724;53.546;9.974;2023-03-19T15:05:27;21.77;;;15.30;;
31061;SDS011;17724;53.546;9.974;2023-03-19T15:09:29;30.63;;;22.43;;
31061;SDS011;17724;53.546;9.974;2023-03-19T15:17:44;25.33;;;16.30;;
31061;SDS011;17724;53.546;9.974;2023-03-19T15:21:46;35.07;;;28.00;;
31061;SDS011;17724;53.546;9.974;2023-03-19T15:25:50;27.40;;;21.20;;
31061;SDS011;17724;53.546;9.974;2023-03-19T15:29:52;46.00;;;31.13;;
31061;SDS011;17724;53.546;9.974;2023-03-19T15:33:55;106.20;;;82.13;;
31061;SDS011;17724;53.546;9.974;2023-03-19T15:37:57;23.57;;;16.60;;
31061;SDS011;17724;53.546;9.974;2023-03-19T15:42:02;44.53;;;33.30;;
31061;SDS011;17724;53.546;9.974;2023-03-19T15:46:03;27.33;;;23.27;;
31061;SDS011;17724;53.546;9.974;2023-03-19T15:50:16;41.53;;;28.70;;
31061;SDS011;17724;53.546;9.974;2023-03-19T15:54:22;28.93;;;20.73;;
31061;SDS011;17724;53.546;9.974;2023-03-19T15:58:23;23.63;;;18.57;;
31061;SDS011;17724;53.546;9.974;2023-03-19T16:02:28;25.27;;;18.50;;
31061;SDS011;17724;53.546;9.974;2023-03-19T16:06:31;27.07;;;17.17;;
31061;SDS011;17724;53.546;9.974;2023-03-19T16:10:39;25.10;;;19.03;;
31061;SDS011;17724;53.546;9.974;2023-03-19T16:14:41;59.73;;;47.10;;
31061;SDS011;17724;53.546;9.974;2023-03-19T16:18:46;42.50;;;36.13;;
31061;SDS011;17724;53.546;9.974;2023-03-19T16:22:53;56.37;;;48.70;;
31061;SDS011;17724;53.546;9.974;2023-03-19T16:26:57;39.17;;;31.20;;
31061;SDS011;17724;53.546;9.974;2023-03-19T16:31:01;39.17;;;30.70;;
31061;SDS011;17724;53.546;9.974;2023-03-19T16:35:03;32.70;;;25.17;;
31061;SDS011;17724;53.546;9.974;2023-03-19T16:39:23;34.73;;;28.20;;
31061;SDS011;17724;53.546;9.974;2023-03-19T16:43:31;34.27;;;29.10;;
31061;SDS011;17724;53.546;9.974;2023-03-19T16:47:33;54.17;;;43.17;;
31061;SDS011;17724;53.546;9.974;2023-03-19T16:51:34;34.70;;;28.50;;
31061;SDS011;17724;53.546;9.974;2023-03-19T16:55:36;57.57;;;50.23;;
31061;SDS011;17724;53.546;9.974;2023-03-19T16:59:36;36.70;;;27.57;;
31061;SDS011;17724;53.546;9.974;2023-03-19T17:03:37;35.87;;;27.20;;
31061;SDS011;17724;53.546;9.974;2023-03-19T17:07:38;37.00;;;25.27;;
31061;SDS011;17724;53.546;9.974;2023-03-19T17:11:41;30.80;;;22.70;;
31061;SDS011;17724;53.546;9.974;2023-03-19T17:15:42;31.27;;;23.43;;
31061;SDS011;17724;53.546;9.974;2023-03-19T17:19:43;29.43;;;22.73;;
31061;SDS011;17724;53.546;9.974;2023-03-19T17:23:45;47.60;;;31.67;;
31061;SDS011;17724;53.546;9.974;2023-03-19T17:27:46;44.80;;;34.73;;
31061;SDS011;17724;53.546;9.974;2023-03-19T17:31:47;37.73;;;28.80;;
31061;SDS011;17724;53.546;9.974;2023-03-19T17:35:48;39.80;;;35.77;;
31061;SDS011;17724;53.546;9.974;2023-03-19T17:39:50;57.47;;;51.30;;
31061;SDS011;17724;53.546;9.974;2023-03-19T17:43:50;43.97;;;39.63;;
31061;SDS011;17724;53.546;9.974;2023-03-19T17:47:51;21.53;;;18.97;;
31061;SDS011;17724;53.546;9.974;2023-03-19T17:51:55;29.37;;;26.27;;
31061;SDS011;17724;53.546;9.974;2023-03-19T17:55:57;35.23;;;29.43;;
31061;SDS011;17724;53.546;9.974;2023-03-19T17:59:57;36.10;;;27.00;;
31061;SDS011;17724;53.546;9.974;2023-03-19T18:03:58;38.60;;;28.87;;
31061;SDS011;17724;53.546;9.974;2023-03-19T18:07:59;52.57;;;40.60;;
31061;SDS011;17724;53.546;9.974;2023-03-19T18:12:00;134.90;;;114.10;;
31061;SDS011;17724;53.546;9.974;2023-03-19T18:16:01;28.53;;;21.80;;
31061;SDS011;17724;53.546;9.974;2023-03-19T18:20:03;42.73;;;30.70;;
31061;SDS011;17724;53.546;9.974;2023-03-19T18:24:05;60.50;;;47.60;;
31061;SDS011;17724;53.546;9.974;2023-03-19T18:28:06;29.63;;;25.07;;
31061;SDS011;17724;53.546;9.974;2023-03-19T18:32:12;116.90;;;104.63;;
31061;SDS011;17724;53.546;9.974;2023-03-19T18:36:17;94.97;;;76.77;;
31061;SDS011;17724;53.546;9.974;2023-03-19T18:40:21;75.53;;;63.43;;
31061;SDS011;17724;53.546;9.974;2023-03-19T18:44:26;66.70;;;46.93;;
31061;SDS011;17724;53.546;9.974;2023-03-19T18:48:27;39.90;;;30.73;;
31061;SDS011;17724;53.546;9.974;2023-03-19T18:52:32;143.60;;;108.43;;
31061;SDS011;17724;53.546;9.974;2023-03-19T18:56:32;69.53;;;55.10;;
31061;SDS011;17724;53.546;9.974;2023-03-19T19:00:33;74.87;;;51.67;;
31061;SDS011;17724;53.546;9.974;2023-03-19T19:04:36;101.13;;;71.10;;
31061;SDS011;17724;53.546;9.974;2023-03-19T19:08:37;51.23;;;38.03;;
31061;SDS011;17724;53.546;9.974;2023-03-19T19:12:41;48.60;;;39.00;;
31061;SDS011;17724;53.546;9.974;2023-03-19T19:16:44;49.43;;;34.60;;
31061;SDS011;17724;53.546;9.974;2023-03-19T19:20:46;54.50;;;37.87;;
31061;SDS011;17724;53.546;9.974;2023-03-19T19:24:48;32.97;;;25.90;;
31061;SDS011;17724;53.546;9.974;2023-03-19T19:28:49;33.40;;;26.80;;
31061;SDS011;17724;53.546;9.974;2023-03-19T19:32:50;54.00;;;34.10;;
31061;SDS011;17724;53.546;9.974;2023-03-19T19:36:50;50.03;;;37.60;;
31061;SDS011;17724;53.546;9.974;2023-03-19T19:40:51;42.60;;;34.10;;
31061;SDS011;17724;53.546;9.974;2023-03-19T19:44:54;41.53;;;35.20;;
31061;SDS011;17724;53.546;9.974;2023-03-19T19:48:58;63.07;;;50.20;;
31061;SDS011;17724;53.546;9.974;2023-03-19T19:52:58;43.00;;;33.60;;
31061;SDS011;17724;53.546;9.974;2023-03-19T19:56:58;36.57;;;30.30;;
31061;SDS011;17724;53.546;9.974;2023-03-19T20:01:00;44.90;;;33.20;;
31061;SDS011;17724;53.546;9.974;2023-03-19T20:05:00;70.23;;;43.73;;
31061;SDS011;17724;53.546;9.974;2023-03-19T20:09:02;42.20;;;35.47;;
31061;SDS011;17724;53.546;9.974;2023-03-19T20:13:03;32.13;;;26.20;;
31061;SDS011;17724;53.546;9.974;2023-03-19T20:17:04;41.57;;;34.47;;
31061;SDS011;17724;53.546;9.974;2023-03-19T20:21:04;45.93;;;35.63;;
31061;SDS011;17724;53.546;9.974;2023-03-19T20:25:06;44.80;;;33.80;;
31061;SDS011;17724;53.546;9.974;2023-03-19T20:29:08;42.70;;;36.63;;
31061;SDS011;17724;53.546;9.974;2023-03-19T20:33:13;50.83;;;40.13;;
31061;SDS011;17724;53.546;9.974;2023-03-19T20:37:15;43.10;;;33.70;;
31061;SDS011;17724;53.546;9.974;2023-03-19T20:41:20;41.00;;;32.60;;
31061;SDS011;17724;53.546;9.974;2023-03-19T20:45:23;41.90;;;31.50;;
31061;SDS011;17724;53.546;9.974;2023-03-19T20:49:25;88.03;;;57.90;;
31061;SDS011;17724;53.546;9.974;2023-03-19T20:53:26;130.87;;;99.13;;
31061;SDS011;17724;53.546;9.974;2023-03-19T20:57:27;56.60;;;44.20;;
31061;SDS011;17724;53.546;9.974;2023-03-19T21:01:28;75.33;;;59.33;;
31061;SDS011;17724;53.546;9.974;2023-03-19T21:05:30;56.43;;;40.67;;
31061;SDS011;17724;53.546;9.974;2023-03-19T21:09:35;36.03;;;28.93;;
31061;SDS011;17724;53.546;9.974;2023-03-19T21:13:35;36.43;;;28.80;;
31061;SDS011;17724;53.546;9.974;2023-03-19T21:17:36;32.47;;;27.47;;
31061;SDS011;17724;53.546;9.974;2023-03-19T21:21:36;33.70;;;26.13;;
31061;SDS011;17724;53.546;9.974;2023-03-19T21:25:37;43.90;;;32.73;;
31061;SDS011;17724;53.546;9.974;2023-03-19T21:29:39;34.80;;;25.70;;
31061;SDS011;17724;53.546;9.974;2023-03-19T21:33:39;50.00;;;37.47;;
31061;SDS011;17724;53.546;9.974;2023-03-19T21:37:42;75.57;;;50.73;;
31061;SDS011;17724;53.546;9.974;2023-03-19T21:41:43;64.03;;;44.93;;
31061;SDS011;17724;53.546;9.974;2023-03-19T21:45:46;30.63;;;21.27;;
31061;SDS011;17724;53.546;9.974;2023-03-19T21:49:48;32.13;;;23.53;;
31061;SDS011;17724;53.546;9.974;2023-03-19T21:53:49;26.20;;;19.07;;
31061;SDS011;17724;53.546;9.974;2023-03-19T21:57:50;22.93;;;16.10;;
31061;SDS011;17724;53.546;9.974;2023-03-19T22:01:53;21.67;;;15.90;;
31061;SDS011;17724;53.546;9.974;2023-03-19T22:05:55;21.97;;;15.57;;
31061;SDS011;17724;53.546;9.974;2023-03-19T22:09:56;25.37;;;17.03;;
31061;SDS011;17724;53.546;9.974;2023-03-19T22:14:01;22.37;;;15.10;;
31061;SDS011;17724;53.546;9.974;2023-03-19T22:18:06;21.40;;;16.77;;
31061;SDS011;17724;53.546;9.974;2023-03-19T22:22:11;25.13;;;18.43;;
31061;SDS011;17724;53.546;9.974;2023-03-19T22:26:31;27.17;;;19.57;;
31061;SDS011;17724;53.546;9.974;2023-03-19T22:30:35;29.80;;;20.77;;
31061;SDS011;17724;53.546;9.974;2023-03-19T22:34:37;28.97;;;19.70;;
31061;SDS011;17724;53.546;9.974;2023-03-19T22:38:37;28.90;;;19.17;;
31061;SDS011;17724;53.546;9.974;2023-03-19T22:42:38;25.03;;;18.50;;
31061;SDS011;17724;53.546;9.974;2023-03-19T22:46:39;25.60;;;19.40;;
31061;SDS011;17724;53.546;9.974;2023-03-19T22:50:40;27.40;;;18.80;;
31061;SDS011;17724;53.546;9.974;2023-03-19T22:54:41;26.30;;;19.40;;
31061;SDS011;17724;53.546;9.974;2023-03-19T22:58:42;26.40;;;20.00;;
31061;SDS011;17724;53.546;9.974;2023-03-19T23:02:43;31.53;;;21.47;;
31061;SDS011;17724;53.546;9.974;2023-03-19T23:06:45;26.53;;;19.70;;
31061;SDS011;17724;53.546;9.974;2023-03-19T23:10:46;31.33;;;21.53;;
31061;SDS011;17724;53.546;9.974;2023-03-19T23:14:47;28.83;;;19.90;;
31061;SDS011;17724;53.546;9.974;2023-03-19T23:18:48;28.70;;;20.07;;
31061;SDS011;17724;53.546;9.974;2023-03-19T23:22:49;30.57;;;20.57;;
31061;SDS011;17724;53.546;9.974;2023-03-19T23:26:51;32.00;;;22.20;;
31061;SDS011;17724;53.546;9.974;2023-03-19T23:30:53;29.97;;;20.13;;
31061;SDS011;17724;53.546;9.974;2023-03-19T23:34:53;31.63;;;22.67;;
31061;SDS011;17724;53.546;9.974;2023-03-19T23:38:54;36.13;;;21.80;;
31061;SDS011;17724;53.546;9.974;2023-03-19T23:42:55;36.77;;;24.00;;
31061;SDS011;17724;53.546;9.974;2023-03-19T23:46:58;37.37;;;24.50;;
31061;SDS011;17724;53.546;9.974;2023-03-19T23:51:01;32.13;;;21.37;;
31061;SDS011;17724;53.546;9.974;2023-03-19T23:55:02;37.30;;;22.20;;
31061;SDS011;17724;53.546;9.974;2023-03-19T23:59:04;34.27;;;22.10;;
